Greyabbey, United Kingdom
Current Conditions -  °F | °C
As of 2:50 PM on Tuesday 21 Oct 2014 (Local Time) from EGAC Reporting Station
Rain Showers Rain Showers  
Wind Chill:   Ceiling: Unl
Heat Index:   Visibility: 6mi
Dew Point:   Wind: 26mph
Humidity: 76%   Direction: 290°WNW
Pressure: 29.85"   Gusts: 40mph
Location:  54.53°N, 5.57°W
Report Text: EGAC 211350Z 29023G35KT 260V330 9999 6000N -SHRA FEW020 SCT030 08/04 Q1011
Loading
Personal Weather Stations






























Interactive Weather Map
Tropical Storm Tracking
New forecast layout! Learn more

10-Day Weather Forecast

Advertisements
Track Severe Weather on mobile